Pagina principale
METAR-TAF:

METAR-TAF

Aeroporti :

Aeroporto di Sármellék

Hévíz, Ungheria

latitudine: 46-41-11N, longitudine: 017-09-33E, altezza: 124 m

Osservazione

Il bollettino è stato emesso 30 minuti fa, alle 13:15 UTC
Vento 2 kt da direzioni variabili
Temperature 13°C
Umidità 41%
Pressione 1034 hPa
Visibilità 10 km o più
nessuna nube inferiore a 1500 m e nessun cumulonembo

METAR: LHSM 021315Z AUTO VRB02KT CAVOK 13/00 Q1034 NOSIG

Ora: 14:45 (13:45 UTC)

Previsione

Il bollettino è stato emesso 2 ore e 30 minuti fa, alle 11:15 UTC
Previsione valida dal 02 alle 12 UTC al 02 alle 21 UTC
Vento 5 kt da sud/sud-ovest
Visibilità 10 km o più
nessuna nube inferiore a 1500 m e nessun cumulonembo

TAF: LHSM 021115Z 0212/0221 20005KT CAVOK

Osservazioni e previsioni meteorologiche di più di 4000 aeroporti (messaggi METAR e TAF).

Le stazioni disponibili sono rappresentate dai dischi gialli e rossi sulla carta.

Puntare il mouse per vedere il nome della stazione.

Clicca sopra per visualizzare le osservazioni e previsioni meteorologiche.

Per cambiare la mappa : fare clic sui pulsanti verdi con una croce nera per ingrandire, il pulsante verde con un trattino per diminuire, o sulla freccia verde per le mappe adiacenti.


METAR-TAF: